Tiempo atmosférico en la estación meteorológica de Santibañez De Vidriales, Zamora (737 m.)



Fecha
DESCASC
Temp. máxima en grados centígrados (hora)
DESCASC
Temp. mínima en grados centígrados (hora)
DESCASC
Temp. media en grados centígrados
DESCASC
Racha de viento máxima en m/sg (hora)
DESCASC
Velocidad máxima media en intervalos de 10 minutos(hora)
DESCASC
Precipitaciones diarias en mm
DESCASC
Precipitaciones de 00:00 a 06:00 en mm
DESCASC
Precipitaciones de 06:00 a 12:00 en mm
DESCASC
Precipitaciones de 12:00 a 18:00 en mm
DESCASC
Precipitaciones de 18:00 a 24:00 en mm
DESCASC
04-03-2021 15.6 (15:40) 4.5 (08:30) 10.1 5.83 (15:10) 3.61 (15:10) 0.2 0.2 0 0 0
03-03-2021 15 (17:00) 1 (05:20) 8 3.89 (15:40) 2.22 (14:50) 0 0 0 0 0
02-03-2021 13.1 (17:00) 3.5 (02:20) 8.3 7.5 (13:50) 5.28 (13:30) 0.8 0.2 0.4 0.2 0
01-03-2021 11.3 (17:30) 2.1 (02:10) 6.7 6.39 (12:30) 3.89 (12:40) 8.6 5.6 0.4 1.8 0.8
28-02-2021 12.7 (15:20) -1.9 (-00:0) 5.4 7.78 (10:10) 4.44 (10:10) 0 0 0 0 0
27-02-2021 15 (16:50) 0.5 (00:00) 7.8 6.11 (13:40) 3.61 (13:50) 0 0 0 0 0
26-02-2021 14 (16:40) 5.9 (00:00) 10 7.78 (14:00) 4.72 (12:30) 0 0 0 0 0
25-02-2021 11.5 (17:00) 4.8 (00:00) 8.2 5.28 (01:00) 3.33 (21:40) 0 0 0 0 0
24-02-2021 15.8 (16:20) -3 (-00:0) 6.4 10.28 (16:20) 6.11 (16:50) 0 0 0 0 0
23-02-2021 14.1 (15:50) -3.7 (-00:0) 5.2 8.06 (14:00) 3.89 (14:40) 0 0 0 0 0
22-02-2021 12.5 (16:10) -1.4 (-00:0) 5.6 6.11 (15:00) 3.61 (02:50) 0 0 0 0 0
21-02-2021 8.3 (10:40) 4 (00:00) 6.2 10 (10:10) 6.39 (10:10) 2.6 0 1.4 1.2 0
20-02-2021 10.8 (11:30) 6.7 (00:00) 8.8 17.78 (11:20) 12.78 (11:20) 5 0 0 3.8 1.2
19-02-2021 12.7 (15:10) 6.7 (00:00) 9.7 13.33 (15:30) 8.33 (14:10) 0 0 0 0 0
18-02-2021 11 (16:40) 5.9 (00:00) 8.5 15 (08:20) 9.44 (12:00) 2.6 0 0.6 1.4 0.6
17-02-2021 12.8 (12:50) 2.7 (00:00) 7.8 11.94 (12:10) 8.06 (13:20) 0.2 0 0 0.2 0
16-02-2021 11 (17:30) -0.3 (00:00) 5.3 9.17 (12:10) 5.83 (12:10) 0.4 0 0 0.4 0
15-02-2021 15.7 (16:30) -0.8 (-00:0) 7.4 6.94 (16:30) 4.72 (16:30) 0 0 0 0 0
14-02-2021 12.8 (17:00) -0.6 (-00:0) 6.1 5.83 (15:50) 3.61 (16:30) 0 0 0 0 0
13-02-2021 14.3 (15:30) 1.8 (00:00) 8.1 5.28 (15:00) 3.06 (14:40) 0 0 0 0 0
12-02-2021 13.4 (14:20) 4 (00:00) 8.7 9.44 (14:30) 6.67 (14:50) 5 5 0 0 0
11-02-2021 13.9 (13:50) 6.2 (00:00) 10 10 (16:20) 6.94 (16:00) 2 0 0 0 2
10-02-2021 12.1 (15:20) 1.6 (00:00) 6.9 10.28 (01:40) 6.67 (01:40) 1.2 1.2 0 0 0
09-02-2021 6.9 (09:30) 2.1 (00:00) 4.5 15 (07:50) 8.33 (10:50) 12.2 0.8 8.2 1 2.2
08-02-2021 8.5 (12:40) 1.8 (00:00) 5.1 13.89 (22:20) 8.33 (22:20) 2.2 2 0 0.2 0
07-02-2021 5.9 (14:10) 1.1 (00:00) 3.5 12.22 (18:10) 7.22 (18:20) 2.6 0 0 0 2.6
06-02-2021 7.7 (15:30) 3.3 (00:00) 5.5 11.11 (02:40) 7.5 (02:40) 12.4 10.2 1.8 0.4 0
05-02-2021 8.5 (17:30) 5 (00:00) 6.8 10.28 (20:50) 6.39 (21:00) 9 0.6 5.6 0 2.8
04-02-2021 6.6 (14:30) 3.2 (00:00) 4.9 3.61 (16:40) 2.22 (05:30) 3.2 0 0 2.8 0.4

Gráficas

Temp. máximas Temp. mínimas Temp. medias Precipitaciones Rachas de viento máximas Velocidades máximas media en intervalos de 10 minutos

Datos horarios

Fecha y hora oficial Temperatura (ºC) Velocidad del viento (km/h) Dirección del viento Racha (km/h) Dirección de racha Precipitación (mm) Presión (hPa) Tendencia (hPa) Humedad (%)
2021-03-05 23:00:00 -- -- -- -- -- -- -- -- --
2021-03-05 22:00:00 7.1 6 Nordeste 17 Este 0 -- -- 76
2021-03-05 21:00:00 8.5 9 Este 22 Este 0 -- -- 70
2021-03-05 20:00:00 10.3 16 Este 26 Este 0 -- -- 64
2021-03-05 19:00:00 11.9 12 Este 23 Este 0 -- -- 55
2021-03-05 18:00:00 13.8 18 Este 27 Este 0 -- -- 49
2021-03-05 17:00:00 14.5 16 Este 25 Este 0 -- -- 49
2021-03-05 16:00:00 14.9 16 Este 28 Este 0 -- -- 49
2021-03-05 15:00:00 14.7 15 Este 29 Este 0 -- -- 51
2021-03-05 14:00:00 13.9 12 Este 30 Este 0 -- -- 53
2021-03-05 13:00:00 13.4 18 Este 30 Este 0 -- -- 57
2021-03-05 12:00:00 11.7 13 Este 23 Este 0 -- -- 69
2021-03-05 11:00:00 11.1 10 Este 19 Este 0 -- -- 70
2021-03-05 10:00:00 8.9 2 Norte 12 Norte 0 -- -- 75
2021-03-05 09:00:00 6.9 8 Nordeste 17 Nordeste 0 -- -- 80
2021-03-05 08:00:00 4.7 7 Norte 12 Norte 0 -- -- 86
2021-03-05 07:00:00 4.7 6 Nordeste 12 Norte 0 -- -- 86
2021-03-05 06:00:00 5.7 11 Norte 12 Norte 0 -- -- 83
2021-03-05 05:00:00 6.6 9 Nordeste 12 Norte 0 -- -- 79
2021-03-05 04:00:00 7 5 Norte 13 Nordeste 0 -- -- 78
2021-03-05 03:00:00 7 5 Norte 12 Nordeste 0 -- -- 81
2021-03-05 02:00:00 7.9 4 Norte 13 Noroeste 0 -- -- 77
2021-03-05 01:00:00 7.9 6 Norte 15 Norte 0 -- -- 79
2021-03-05 00:00:00 8.2 7 Norte 11 Norte 0 -- -- 78
2021-03-04 23:00:00 8.6 4 Norte 8 Nordeste 0 -- -- 79
2021-03-04 22:00:00 9 4 Norte 7 Norte 0 -- -- 77
2021-03-04 21:00:00 8.9 4 Norte 8 Noroeste 0 -- -- 80
2021-03-04 20:00:00 10.9 5 Noroeste 6 Noroeste 0 -- -- 73
2021-03-04 19:00:00 13.5 3 Norte 6 Sudeste 0 -- -- 65
2021-03-04 18:00:00 15 5 Sudeste 15 Sudeste 0 -- -- 56
2021-03-04 17:00:00 15.6 9 Sudeste 19 Sudeste 0 -- -- 54
2021-03-04 16:00:00 15.5 10 Sudeste 21 Sudeste 0 -- -- 52
2021-03-04 15:00:00 15.3 11 Sudeste 19 Este 0 -- -- 58
2021-03-04 14:00:00 14.1 9 Sudeste 18 Sudeste 0 -- -- 61
2021-03-04 13:00:00 13.2 7 Sudeste 15 Nordeste 0 -- -- 67
2021-03-04 12:00:00 10.9 9 Este 16 Este 0 -- -- 74
2021-03-04 11:00:00 9.2 7 Nordeste 14 Nordeste 0 -- -- 79
2021-03-04 10:00:00 8 7 Nordeste 11 Nordeste 0 -- -- 85
2021-03-04 09:00:00 5.1 0 Calma 5 Noroeste 0 -- -- 93
2021-03-04 08:00:00 4.6 2 Norte 11 Norte 0 -- -- 90
2021-03-04 07:00:00 5.1 6 Norte 12 Norte 0 -- -- 89
2021-03-04 06:00:00 5.7 6 Norte 9 Norte 0 -- -- 88
2021-03-04 05:00:00 5.8 5 Noroeste 8 Noroeste 0 -- -- 91
2021-03-04 04:00:00 5.9 0 Calma 8 Oeste 0 -- -- 91
2021-03-04 03:00:00 7 3 Noroeste 9 Norte 0 -- -- 90
2021-03-04 02:00:00 6.9 4 Norte 9 Nordeste 0.2 -- -- 93
2021-03-04 01:00:00 6.3 3 Norte 11 Sudoeste 0 -- -- 92
2021-03-04 00:00:00 5.1 3 Noroeste 7 Noroeste 0 -- -- 92
2021-03-03 23:00:00 4.8 3 Noroeste 6 Noroeste 0 -- -- 89
2021-03-03 22:00:00 5.9 4 Noroeste 6 Noroeste 0 -- -- 86
2021-03-03 21:00:00 7.9 4 Noroeste 5 Noroeste 0 -- -- 81
2021-03-03 20:00:00 10.7 3 Sudeste 6 Sudeste 0 -- -- 72
2021-03-03 19:00:00 13.3 5 Sudeste 7 Sudeste 0 -- -- 61
2021-03-03 18:00:00 14.6 2 Este 8 Este 0 -- -- 55
2021-03-03 17:00:00 15 0 Calma 13 Este 0 -- -- 56
2021-03-03 16:00:00 14.5 4 Nordeste 14 Este 0 -- -- 59
2021-03-03 15:00:00 14.1 6 Sudeste 13 Sur 0 -- -- 63
2021-03-03 14:00:00 12.7 3 Sur 12 Este 0 -- -- 71
2021-03-03 13:00:00 11.5 2 Sudeste 7 Este 0 -- -- 79
2021-03-03 12:00:00 8.9 4 Nordeste 8 Nordeste 0 -- -- 87
2021-03-03 11:00:00 7 3 Este 6 Sudoeste 0 -- -- 93
2021-03-03 10:00:00 5.9 2 Nordeste 5 Nordeste 0 -- -- 97
2021-03-03 09:00:00 3.9 0 Calma 3 Oeste 0 -- -- 97
2021-03-03 08:00:00 2.8 2 Este 3 Sudeste 0 -- -- 97
2021-03-03 07:00:00 2.5 2 Oeste 4 Oeste 0 -- -- 97
2021-03-03 06:00:00 1.8 0 Calma 5 Nordeste 0 -- -- 97
2021-03-03 05:00:00 1.1 2 Este 3 Sudoeste 0 -- -- 95
2021-03-03 04:00:00 2.7 3 Sudoeste 4 Oeste 0 -- -- 95
2021-03-03 03:00:00 2.9 0 Calma 4 Este 0 -- -- 95
2021-03-03 02:00:00 3.5 0 Calma 6 Noroeste 0 -- -- 95
2021-03-03 01:00:00 4.1 3 Noroeste 6 Oeste 0 -- -- 93
2021-03-03 00:00:00 4.9 0 Calma 5 Norte 0 -- -- 92
2021-03-02 23:00:00 5.4 4 Noroeste 7 Noroeste 0 -- -- 91
2021-03-02 22:00:00 6.4 4 Noroeste 7 Noroeste 0 -- -- 90
2021-03-02 21:00:00 8 0 Calma 6 Noroeste 0 -- -- 85
2021-03-02 20:00:00 9.8 2 Sudoeste 6 Sudoeste 0 -- -- 78
2021-03-02 19:00:00 11 4 Sudoeste 14 Oeste 0 -- -- 74
2021-03-02 18:00:00 12.2 9 Sudoeste 21 Sudoeste 0 -- -- 68
2021-03-02 17:00:00 13.1 15 Sudoeste 24 Sudoeste 0 -- -- 62
2021-03-02 16:00:00 12.9 15 Sudoeste 24 Sudoeste 0 -- -- 65
2021-03-02 15:00:00 11.8 13 Sudoeste 24 Sur 0 -- -- 74
2021-03-02 14:00:00 10.6 18 Sur 27 Sur 0 -- -- 82
2021-03-02 13:00:00 10.4 15 Sur 22 Sur 0.2 -- -- 90
2021-03-02 12:00:00 9.1 9 Sur 15 Sur 0 -- -- 94
2021-03-02 11:00:00 7.1 5 Este 7 Este 0 -- -- 97
2021-03-02 10:00:00 6.2 4 Este 7 Sudeste 0.4 -- -- 97
2021-03-02 09:00:00 5.6 3 Sur 13 Sudeste 0 -- -- 97
2021-03-02 08:00:00 5.6 7 Sudeste 12 Sudeste 0 -- -- 97
2021-03-02 07:00:00 5.4 4 Este 8 Este 0 -- -- 97
2021-03-02 06:00:00 5.2 0 Calma 6 Sudeste 0 -- -- 97
2021-03-02 05:00:00 4.7 2 Sudeste 5 Sudeste 0 -- -- 97
2021-03-02 04:00:00 4.2 2 Este 4 Este 0 -- -- 97
2021-03-02 03:00:00 3.9 0 Calma 5 Oeste 0.2 -- -- 97
2021-03-02 02:00:00 3.9 2 Norte 4 Este 0 -- -- 95
2021-03-02 01:00:00 5.8 0 Calma 8 Este 0 -- -- 95
2021-03-02 00:00:00 6.3 2 Nordeste 5 Este 0 -- -- 94
2021-03-01 23:00:00 7 3 Este 12 Este 0 -- -- 94
2021-03-01 22:00:00 7.5 7 Este 10 Oeste 0.2 -- -- 94
2021-03-01 21:00:00 7.7 5 Este 8 Este 0 -- -- 92
2021-03-01 20:00:00 8.5 4 Sudeste 17 Sudeste 0.6 -- -- 92
2021-03-01 19:00:00 8.9 9 Sudeste 19 Sudeste 0 -- -- 90
2021-03-01 18:00:00 10.3 12 Sudeste 22 Este 0 -- -- 81
2021-03-01 17:00:00 10.9 3 Nordeste 8 Sudeste 0 -- -- 85
2021-03-01 16:00:00 9.9 0 Calma 14 Sur 0.4 -- -- 89
2021-03-01 15:00:00 8.8 4 Sudeste 12 Sudeste 1 -- -- 91
2021-03-01 14:00:00 8.8 4 Sudeste 17 Sudeste 0.2 -- -- 88
2021-03-01 13:00:00 8.3 12 Sudeste 23 Sudeste 0.2 -- -- 87
2021-03-01 12:00:00 8 12 Sudeste 21 Sudeste 0 -- -- 87
2021-03-01 11:00:00 7.3 6 Sudeste 13 Sudeste 0 -- -- 93
2021-03-01 10:00:00 5.3 3 Este 10 Sudeste 0.2 -- -- 95
2021-03-01 09:00:00 4.9 3 Sudeste 8 Sudeste 0 -- -- 95
2021-03-01 08:00:00 4.7 2 Nordeste 7 Sudeste 0.2 -- -- 95
2021-03-01 07:00:00 4.3 0 Calma 13 Sur 0 -- -- 95
2021-03-01 06:00:00 3.9 3 Nordeste 15 Norte 3.6 -- -- 95
2021-03-01 05:00:00 4 7 Sudoeste 12 Sudoeste 2 -- -- 92
2021-03-01 04:00:00 3.4 3 Norte 6 Noroeste 0 -- -- 93
2021-03-01 03:00:00 2.2 0 Calma 6 Noroeste 0 -- -- 91
2021-03-01 02:00:00 2.2 3 Noroeste 6 Oeste 0 -- -- 90
2021-03-01 01:00:00 2.5 2 Noroeste 9 Noroeste 0 -- -- 88
2021-03-01 00:00:00 2.8 4 Noroeste 7 Noroeste 0 -- -- 89
2021-02-28 23:00:00 3.2 3 Oeste 6 Oeste 0 -- -- 83
2021-02-28 22:00:00 4 2 Este 4 Este 0 -- -- 76
2021-02-28 21:00:00 5.2 0 Calma 2 Este 0 -- -- 71
2021-02-28 20:00:00 7.5 0 Calma 6 Sudeste 0 -- -- 63
2021-02-28 19:00:00 10.4 5 Sudeste 9 Sudeste 0 -- -- 52
2021-02-28 18:00:00 11.9 6 Sudeste 18 Sudeste 0 -- -- 43
2021-02-28 17:00:00 12.5 9 Sudeste 17 Sur 0 -- -- 42
2021-02-28 16:00:00 12.6 9 Sudeste 19 Este 0 -- -- 43
2021-02-28 15:00:00 12.3 7 Sudeste 18 Nordeste 0 -- -- 47
2021-02-28 14:00:00 10.8 7 Nordeste 20 Este 0 -- -- 49
2021-02-28 13:00:00 9.7 6 Este 19 Este 0 -- -- 52
2021-02-28 12:00:00 7.5 9 Nordeste 21 Este 0 -- -- 64
2021-02-28 11:00:00 5.8 16 Este 28 Este 0 -- -- 65
2021-02-28 10:00:00 3.6 8 Nordeste 16 Nordeste 0 -- -- 78
2021-02-28 09:00:00 0.2 0 Calma 5 Noroeste 0 -- -- 87
2021-02-28 08:00:00 -1.6 4 Noroeste 7 Sudoeste 0 -- -- 86
2021-02-28 07:00:00 0.3 2 Norte 7 Oeste 0 -- -- 84
2021-02-28 06:00:00 -1.7 0 Calma 6 Oeste 0 -- -- 87
2021-02-28 05:00:00 -0.4 5 Noroeste 9 Oeste 0 -- -- 83
2021-02-28 04:00:00 -1.4 5 Oeste 7 Noroeste 0 -- -- 89
2021-02-28 03:00:00 -1 3 Sudeste 7 Oeste 0 -- -- 87
2021-02-28 02:00:00 0.3 3 Noroeste 6 Noroeste 0 -- -- 83
2021-02-28 01:00:00 2.4 2 Oeste 8 Noroeste 0 -- -- 76
2021-02-28 00:00:00 2.3 3 Noroeste 12 Noroeste 0 -- -- 82
2021-02-27 23:00:00 4 9 Noroeste 10 Noroeste 0 -- -- 78
2021-02-27 22:00:00 7.6 4 Este 14 Este 0 -- -- 59
2021-02-27 21:00:00 7.2 10 Este 16 Este 0 -- -- 76
2021-02-27 20:00:00 9.2 3 Norte 8 Este 0 -- -- 73
2021-02-27 19:00:00 12.2 6 Este 13 Este 0 -- -- 62
2021-02-27 18:00:00 14.6 9 Nordeste 18 Nordeste 0 -- -- 55
2021-02-27 17:00:00 15 8 Este 18 Este 0 -- -- 52
2021-02-27 16:00:00 14.5 8 Nordeste 20 Este 0 -- -- 54
2021-02-27 15:00:00 13.8 9 Nordeste 19 Este 0 -- -- 58
2021-02-27 14:00:00 12.6 10 Este 22 Este 0 -- -- 63
2021-02-27 13:00:00 11.4 9 Este 19 Este 0 -- -- 64
2021-02-27 12:00:00 10 10 Este 20 Nordeste 0 -- -- 67
2021-02-27 11:00:00 8.9 8 Este 17 Este 0 -- -- 74
2021-02-27 10:00:00 6.1 2 Norte 4 Noroeste 0 -- -- 91
2021-02-27 09:00:00 1.6 0 Calma 7 Noroeste 0 -- -- 96
2021-02-27 08:00:00 0.5 3 Noroeste 5 Oeste 0 -- -- 95
2021-02-27 07:00:00 0.8 2 Oeste 3 Noroeste 0 -- -- 94
2021-02-27 06:00:00 1.4 0 Calma 2 Sudoeste 0 -- -- 94
2021-02-27 05:00:00 2 0 Calma 4 Noroeste 0 -- -- 92
2021-02-27 04:00:00 3 3 Noroeste 5 Noroeste 0 -- -- 89
2021-02-27 03:00:00 4.1 5 Noroeste 8 Noroeste 0 -- -- 92
2021-02-27 02:00:00 5.1 3 Noroeste 8 Noroeste 0 -- -- 86
2021-02-27 01:00:00 6.3 0 Calma 7 Nordeste 0 -- -- 86
2021-02-27 00:00:00 7.2 4 Nordeste 12 Norte 0 -- -- 82
2021-02-26 23:00:00 8.2 3 Nordeste 6 Este 0 -- -- 80
2021-02-26 22:00:00 8.1 3 Nordeste 6 Norte 0 -- -- 80
2021-02-26 21:00:00 8.6 3 Norte 5 Norte 0 -- -- 79
2021-02-26 20:00:00 9.4 4 Nordeste 7 Este 0 -- -- 76
2021-02-26 19:00:00 11.5 5 Este 13 Este 0 -- -- 68
2021-02-26 18:00:00 12.9 5 Sudeste 20 Este 0 -- -- 64
2021-02-26 17:00:00 13.9 10 Este 23 Este 0 -- -- 60
2021-02-26 16:00:00 13.6 14 Este 23 Este 0 -- -- 61
2021-02-26 15:00:00 13 13 Este 23 Este 0 -- -- 64
2021-02-26 14:00:00 12.5 15 Este 28 Este 0 -- -- 65
2021-02-26 13:00:00 10.8 13 Nordeste 26 Este 0 -- -- 72
2021-02-26 12:00:00 10.3 14 Este 20 Nordeste 0 -- -- 74
2021-02-26 11:00:00 8.9 14 Este 22 Nordeste 0 -- -- 80
2021-02-26 10:00:00 7.7 3 Norte 8 Nordeste 0 -- -- 84
2021-02-26 09:00:00 6.4 3 Norte 7 Norte 0 -- -- 85
2021-02-26 08:00:00 5.9 2 Nordeste 9 Norte 0 -- -- 85
2021-02-26 07:00:00 5.9 3 Norte 13 Norte 0 -- -- 85
2021-02-26 06:00:00 5.9 8 Nordeste 12 Nordeste 0 -- -- 86
2021-02-26 05:00:00 6 8 Norte 12 Nordeste 0 -- -- 86
2021-02-26 04:00:00 6.7 6 Norte 9 Noroeste 0 -- -- 84
2021-02-26 03:00:00 7.8 5 Nordeste 15 Nordeste 0 -- -- 81
2021-02-26 02:00:00 8.1 6 Nordeste 15 Nordeste 0 -- -- 80
2021-02-26 01:00:00 7.6 3 Nordeste 11 Norte 0 -- -- 84
2021-02-26 00:00:00 7.4 5 Norte 13 Nordeste 0 -- -- 85
2021-02-25 23:00:00 8.2 9 Nordeste 17 Nordeste 0 -- -- 82
2021-02-25 22:00:00 8.9 9 Norte 15 Norte 0 -- -- 80
2021-02-25 21:00:00 8.8 3 Noroeste 6 Noroeste 0 -- -- 81
2021-02-25 20:00:00 9.2 3 Norte 7 Nordeste 0 -- -- 79
2021-02-25 19:00:00 9.9 6 Nordeste 16 Nordeste 0 -- -- 76
2021-02-25 18:00:00 11.3 7 Nordeste 12 Nordeste 0 -- -- 70
2021-02-25 17:00:00 11.5 4 Sudeste 10 Este 0 -- -- 69
2021-02-25 16:00:00 11 6 Sudeste 13 Este 0 -- -- 72
2021-02-25 15:00:00 10.6 7 Sudeste 14 Sudeste 0 -- -- 74
2021-02-25 14:00:00 10.2 4 Sudeste 7 Este 0 -- -- 75
2021-02-25 13:00:00 9.4 4 Este 8 Este 0 -- -- 80
2021-02-25 12:00:00 8.3 4 Sudeste 11 Sudeste 0 -- -- 84
2021-02-25 11:00:00 7.8 7 Sudeste 12 Sudeste 0 -- -- 86
2021-02-25 10:00:00 6.2 2 Nordeste 6 Este 0 -- -- 91
2021-02-25 09:00:00 5.3 0 Calma 3 Noroeste 0 -- -- 92
2021-02-25 08:00:00 4.8 0 Calma 7 Este 0 -- -- 92
2021-02-25 07:00:00 5.6 3 Este 5 Nordeste 0 -- -- 89
2021-02-25 06:00:00 6 3 Este 5 Este 0 -- -- 89
2021-02-25 05:00:00 6.9 3 Sudeste 7 Este 0 -- -- 88
2021-02-25 04:00:00 7.2 3 Nordeste 9 Este 0 -- -- 87
2021-02-25 03:00:00 7.4 5 Este 10 Este 0 -- -- 84
2021-02-25 02:00:00 7.5 6 Este 14 Sudeste 0 -- -- 83
2021-02-25 01:00:00 7 8 Este 19 Este 0 -- -- 84
2021-02-25 00:00:00 7.3 0 Calma 6 Sudeste 0 -- -- 80
2021-02-24 23:00:00 7.6 6 Sudeste 11 Este 0 -- -- 78
2021-02-24 22:00:00 8.1 4 Este 6 Este 0 -- -- 74
2021-02-24 21:00:00 9.3 4 Sudoeste 9 Sudoeste 0 -- -- 68
2021-02-24 20:00:00 10 2 Oeste 9 Sur 0 -- -- 66
2021-02-24 19:00:00 11.7 7 Sur 28 Sudoeste 0 -- -- 59
2021-02-24 18:00:00 14.1 18 Sur 30 Sur 0 -- -- 50
2021-02-24 17:00:00 15.5 19 Sur 37 Sur 0 -- -- 48
2021-02-24 16:00:00 15.5 17 Sur 31 Sudoeste 0 -- -- 47
2021-02-24 15:00:00 15.2 12 Sur 28 Sudeste 0 -- -- 45
2021-02-24 14:00:00 13.2 6 Sudeste 18 Este 0 -- -- 55
2021-02-24 13:00:00 10.9 5 Este 12 Sudeste 0 -- -- 67
2021-02-24 12:00:00 8.5 6 Este 10 Este 0 -- -- 71
2021-02-24 11:00:00 6.2 4 Nordeste 9 Nordeste 0 -- -- 81
2021-02-24 10:00:00 2.7 2 Noroeste 5 Noroeste 0 -- -- 92
2021-02-24 09:00:00 -1.3 0 Calma 3 Noroeste 0 -- -- 94
2021-02-24 08:00:00 -2.8 3 Sudeste 8 Sudeste 0 -- -- 93
2021-02-24 07:00:00 -2.4 2 Noroeste 5 Noroeste 0 -- -- 93
2021-02-24 06:00:00 -2 0 Calma 7 Noroeste 0 -- -- 93
2021-02-24 05:00:00 -1.7 5 Noroeste 7 Noroeste 0 -- -- 93
2021-02-24 04:00:00 -1.6 0 Calma 4 Sudeste 0 -- -- 91
2021-02-24 03:00:00 -1 0 Calma 2 Noroeste 0 -- -- 91
2021-02-24 02:00:00 -0.4 0 Calma 4 Noroeste 0 -- -- 90
2021-02-24 01:00:00 0 2 Sudoeste 7 Noroeste 0 -- -- 88
2021-02-24 00:00:00 1 2 Noroeste 6 Noroeste 0 -- -- 86
2021-02-23 23:00:00 2.9 2 Oeste 4 Noroeste 0 -- -- 80
2021-02-23 22:00:00 3.3 2 Norte 13 Sudoeste 0 -- -- 80
2021-02-23 21:00:00 5.3 3 Noroeste 5 Noroeste 0 -- -- 73
2021-02-23 20:00:00 7.5 3 Este 10 Sudeste 0 -- -- 64
2021-02-23 19:00:00 10.6 9 Sudeste 24 Sudeste 0 -- -- 53
2021-02-23 18:00:00 12.9 12 Sudeste 24 Sudeste 0 -- -- 50
2021-02-23 17:00:00 13.7 10 Sudeste 21 Sudeste 0 -- -- 48
2021-02-23 16:00:00 14 13 Sur 26 Sur 0 -- -- 45
2021-02-23 15:00:00 13.6 13 Sudeste 26 Sudeste 0 -- -- 42
2021-02-23 14:00:00 12.2 11 Sudeste 29 Sudeste 0 -- -- 50
2021-02-23 13:00:00 10 8 Sudeste 17 Este 0 -- -- 62
2021-02-23 12:00:00 7 4 Sur 8 Sudoeste 0 -- -- 67
2021-02-23 11:00:00 4.6 3 Este 6 Este 0 -- -- 72
2021-02-23 10:00:00 0.9 2 Noroeste 4 Noroeste 0 -- -- 89
2021-02-23 09:00:00 -2 0 Calma 3 Noroeste 0 -- -- 92
2021-02-23 08:00:00 -3.7 0 Calma 3 Noroeste 0 -- -- 91
2021-02-23 07:00:00 -3.4 0 Calma 4 Noroeste 0 -- -- 92
2021-02-23 06:00:00 -3 2 Noroeste 4 Noroeste 0 -- -- 92
2021-02-23 05:00:00 -2.7 0 Calma 2 Oeste 0 -- -- 91
2021-02-23 04:00:00 -2.5 2 Este 3 Nordeste 0 -- -- 91
2021-02-23 03:00:00 -1.9 0 Calma 2 Noroeste 0 -- -- 90
2021-02-23 02:00:00 -1.4 0 Calma 2 Norte 0 -- -- 90
2021-02-23 01:00:00 -0.8 0 Calma 5 Noroeste 0 -- -- 90
2021-02-23 00:00:00 0 0 Calma 3 Este 0 -- -- 86
2021-02-22 23:00:00 1.2 0 Calma 3 Este 0 -- -- 78
2021-02-22 22:00:00 1.9 2 Noroeste 4 Noroeste 0 -- -- 79
2021-02-22 21:00:00 3.8 0 Calma 9 Sudoeste 0 -- -- 69
2021-02-22 20:00:00 5.3 8 Sudoeste 11 Sudoeste 0 -- -- 58
2021-02-22 19:00:00 8.1 8 Sudoeste 15 Sudoeste 0 -- -- 46
2021-02-22 18:00:00 11.9 7 Sudoeste 17 Sudoeste 0 -- -- 31
2021-02-22 17:00:00 12.3 9 Sudoeste 19 Sudoeste 0 -- -- 32
2021-02-22 16:00:00 12.3 10 Sudoeste 17 Sudoeste 0 -- -- 32
2021-02-22 15:00:00 11.6 7 Sudoeste 22 Oeste 0 -- -- 30
2021-02-22 14:00:00 10 4 Noroeste 10 Oeste 0 -- -- 36
2021-02-22 13:00:00 8.5 2 Noroeste 8 Este 0 -- -- 47
2021-02-22 12:00:00 7.3 2 Sudeste 9 Sur 0 -- -- 59
2021-02-22 11:00:00 5 5 Sudeste 10 Sur 0 -- -- 69
2021-02-22 10:00:00 2.8 4 Sur 6 Sur 0 -- -- 81
2021-02-22 09:00:00 0.3 4 Sudoeste 8 Oeste 0 -- -- 84
2021-02-22 08:00:00 -1.4 4 Sudoeste 14 Oeste 0 -- -- 88
2021-02-22 07:00:00 0.2 8 Oeste 12 Oeste 0 -- -- 82
2021-02-22 06:00:00 1.1 4 Noroeste 18 Norte 0 -- -- 80
2021-02-22 05:00:00 1.8 4 Norte 15 Noroeste 0 -- -- 76
2021-02-22 04:00:00 2 8 Noroeste 22 Noroeste 0 -- -- 78
2021-02-22 03:00:00 2.8 12 Noroeste 21 Noroeste 0 -- -- 79
2021-02-22 02:00:00 4 10 Noroeste 16 Noroeste 0 -- -- 78
2021-02-22 01:00:00 3.5 0 Calma 8 Oeste 0 -- -- 84
2021-02-22 00:00:00 4 4 Noroeste 15 Oeste 0 -- -- 80
2021-02-21 23:00:00 4.6 10 Oeste 17 Noroeste 0 -- -- 80
2021-02-21 22:00:00 4.5 6 Norte 12 Norte 0 -- -- 82
2021-02-21 21:00:00 5 5 Noroeste 12 Noroeste 0 -- -- 81
2021-02-21 20:00:00 5.5 7 Noroeste 17 Noroeste 0 -- -- 78
2021-02-21 19:00:00 6 9 Noroeste 22 Noroeste 0 -- -- 77
2021-02-21 18:00:00 6.9 12 Noroeste 20 Norte 0 -- -- 79
2021-02-21 17:00:00 6.8 6 Norte 16 Norte 0 -- -- 86
2021-02-21 16:00:00 6.3 8 Norte 20 Norte 0.2 -- -- 89
2021-02-21 15:00:00 6.2 11 Norte 22 Norte 0.6 -- -- 88
2021-02-21 14:00:00 6.8 9 Norte 19 Norte 0.4 -- -- 86
2021-02-21 13:00:00 8.3 8 Sudoeste 22 Sur 0 -- -- 86
2021-02-21 12:00:00 8 15 Sur 30 Sur 0 -- -- 88
2021-02-21 11:00:00 8.2 16 Sur 36 Sur 0 -- -- 88
2021-02-21 10:00:00 8.1 19 Sur 34 Sur 0.4 -- -- 89
2021-02-21 09:00:00 6.9 6 Sur 15 Sur 0.8 -- -- 87
2021-02-21 08:00:00 6.6 3 Oeste 6 Noroeste 0.2 -- -- 82
2021-02-21 07:00:00 6 3 Norte 10 Nordeste 0 -- -- 83
2021-02-21 06:00:00 6.3 5 Oeste 10 Sudoeste 0 -- -- 76
2021-02-21 05:00:00 5.3 2 Este 6 Noroeste 0 -- -- 85
2021-02-21 04:00:00 6.1 4 Oeste 8 Oeste 0 -- -- 78
2021-02-21 03:00:00 6 2 Noroeste 7 Noroeste 0 -- -- 82
2021-02-21 02:00:00 6.3 2 Noroeste 6 Nordeste 0 -- -- 85
2021-02-21 01:00:00 6.4 2 Norte 5 Noroeste 0 -- -- 88
2021-02-21 00:00:00 6.9 0 Calma 8 Sudeste 0 -- -- 87
2021-02-20 23:00:00 7 3 Sudeste 9 Sur 0 -- -- 87
2021-02-20 22:00:00 7.2 3 Oeste 4 Oeste 0 -- -- 91
2021-02-20 21:00:00 7.6 5 Este 14 Sudoeste 0.2 -- -- 89
2021-02-20 20:00:00 8.3 12 Sudoeste 21 Sudoeste 0.8 -- -- 84
2021-02-20 19:00:00 8.2 9 Sudoeste 22 Sur 0.2 -- -- 89
2021-02-20 18:00:00 8.2 9 Sudoeste 20 Sur 0.8 -- -- 90
2021-02-20 17:00:00 8.6 17 Sur 36 Sur 1.6 -- -- 87
2021-02-20 16:00:00 9.5 21 Sur 36 Sur 1 -- -- 82
2021-02-20 15:00:00 9.7 24 Sur 48 Sur 0.4 -- -- 78
2021-02-20 14:00:00 10.1 28 Sur 54 Sur 0 -- -- 70
2021-02-20 13:00:00 10.5 39 Sur 58 Sur 0 -- -- 64
2021-02-20 12:00:00 10.4 38 Sur 64 Sur 0 -- -- 64
2021-02-20 11:00:00 9.7 40 Sur 57 Sur 0 -- -- 66
2021-02-20 10:00:00 8.7 38 Sur 62 Sur 0 -- -- 72
2021-02-20 09:00:00 8 31 Sur 49 Sur 0 -- -- 73
2021-02-20 08:00:00 7.9 23 Sur 44 Sur 0 -- -- 71
2021-02-20 07:00:00 8.2 28 Sur 49 Sur 0 -- -- 70
2021-02-20 06:00:00 8.4 30 Sudoeste 47 Sudoeste 0 -- -- 70
2021-02-20 05:00:00 8 15 Sur 34 Sur 0 -- -- 78
2021-02-20 04:00:00 6.8 4 Nordeste 32 Sudoeste 0 -- -- 84
2021-02-20 03:00:00 9 19 Sur 32 Sudoeste 0 -- -- 77
2021-02-20 02:00:00 8.8 8 Sur 23 Sudoeste 0 -- -- 80
2021-02-20 01:00:00 9.1 16 Sudoeste 41 Sur 0 -- -- 79
2021-02-20 00:00:00 9.7 18 Sur 31 Sur 0 -- -- 75
2021-02-19 23:00:00 9.8 21 Sur 34 Sudoeste 0 -- -- 73
2021-02-19 22:00:00 9.9 22 Sur 41 Sur 0 -- -- 72
2021-02-19 21:00:00 10.1 23 Sur 45 Sudoeste 0 -- -- 69
2021-02-19 20:00:00 10 21 Sur 31 Sur 0 -- -- 65
2021-02-19 19:00:00 10.8 19 Sur 39 Sudoeste 0 -- -- 61
2021-02-19 18:00:00 11.7 19 Sur 38 Sudoeste 0 -- -- 59
2021-02-19 17:00:00 11.9 22 Sudoeste 44 Sudoeste 0 -- -- 57
2021-02-19 16:00:00 11.8 25 Sudoeste 48 Sudoeste 0 -- -- 56
2021-02-19 15:00:00 12.2 20 Sudoeste 41 Sudoeste 0 -- -- 60
2021-02-19 14:00:00 11.8 27 Sudoeste 42 Sudoeste 0 -- -- 57
2021-02-19 13:00:00 11.8 26 Sudoeste 45 Sudoeste 0 -- -- 58
2021-02-19 12:00:00 11.3 26 Sudoeste 42 Sudoeste 0 -- -- 69
2021-02-19 11:00:00 10 18 Sur 32 Sudoeste 0 -- -- 86
2021-02-19 10:00:00 9.4 21 Sur 31 Sur 0 -- -- 88
2021-02-19 09:00:00 8.5 15 Sur 22 Sur 0 -- -- 89
2021-02-19 08:00:00 8.2 14 Sur 27 Sudoeste 0 -- -- 89
2021-02-19 07:00:00 8.3 15 Sudoeste 24 Sur 0 -- -- 90
2021-02-19 06:00:00 7 4 Sur 10 Sur 0 -- -- 93
2021-02-19 05:00:00 7 7 Sur 12 Sudoeste 0 -- -- 91
2021-02-19 04:00:00 7.6 12 Sudoeste 18 Sudoeste 0 -- -- 90
2021-02-19 03:00:00 7.3 15 Sudoeste 21 Sudoeste 0 -- -- 91
2021-02-19 02:00:00 7.1 8 Sur 10 Sur 0 -- -- 92
2021-02-19 01:00:00 7.2 3 Sudoeste 11 Oeste 0 -- -- 94
2021-02-19 00:00:00 7.4 7 Sur 15 Sudoeste 0 -- -- 94
2021-02-18 23:00:00 6 6 Sudoeste 8 Sudoeste 0 -- -- 95
2021-02-18 22:00:00 6.7 2 Norte 10 Sudoeste 0 -- -- 93
2021-02-18 21:00:00 7 4 Sudeste 8 Sudoeste 0 -- -- 93
2021-02-18 20:00:00 7.8 5 Sudoeste 13 Sudoeste 0.2 -- -- 92
2021-02-18 19:00:00 8.7 10 Sudoeste 18 Sudoeste 0.4 -- -- 90
2021-02-18 18:00:00 9.3 10 Sudoeste 31 Sudoeste 0.6 -- -- 88
2021-02-18 17:00:00 10.5 17 Sudoeste 28 Sudoeste 0.2 -- -- 80
2021-02-18 16:00:00 9.8 14 Sudoeste 27 Sudoeste 0.2 -- -- 88
2021-02-18 15:00:00 9.6 14 Oeste 45 Sudoeste 0.2 -- -- 86
2021-02-18 14:00:00 10 26 Sudoeste 46 Sudoeste 0 -- -- 80
2021-02-18 13:00:00 10.2 29 Sudoeste 49 Sudoeste 0.2 -- -- 81
2021-02-18 12:00:00 9.7 34 Sudoeste 48 Sudoeste 0.2 -- -- 82
2021-02-18 11:00:00 8.5 23 Sudoeste 38 Sudoeste 0.2 -- -- 89
2021-02-18 10:00:00 8.9 21 Sudoeste 39 Sudoeste 0 -- -- 84
2021-02-18 09:00:00 7.8 27 Sudoeste 54 Sudoeste 0.2 -- -- 87
2021-02-18 08:00:00 8.4 24 Sudoeste 37 Sudoeste 0 -- -- 84
2021-02-18 07:00:00 8.5 20 Sur 42 Sudoeste 0 -- -- 85
2021-02-18 06:00:00 8.8 26 Sudoeste 37 Sudoeste 0 -- -- 84
2021-02-18 05:00:00 8.7 26 Sur 37 Sur 0 -- -- 84
2021-02-18 04:00:00 8.7 23 Sur 33 Sur 0 -- -- 85
2021-02-18 03:00:00 9.1 21 Sur 37 Sudoeste 0 -- -- 83
2021-02-18 02:00:00 9.3 23 Sudoeste 39 Sudoeste 0 -- -- 83
2021-02-18 01:00:00 9.9 18 Sudoeste 32 Sur 0 -- -- 83
2021-02-18 00:00:00 10.2 21 Sudoeste 35 Sur 0 -- -- 82
2021-02-17 23:00:00 9.9 17 Sudoeste 24 Sudoeste 0 -- -- 84
2021-02-17 22:00:00 9.6 11 Sur 26 Sur 0 -- -- 86
2021-02-17 21:00:00 8.9 6 Sudeste 12 Sudeste 0 -- -- 91
2021-02-17 20:00:00 9.6 9 Sur 14 Sur 0 -- -- 86
2021-02-17 19:00:00 10.1 11 Sudoeste 26 Sudoeste 0 -- -- 86
2021-02-17 18:00:00 10.9 18 Sudoeste 33 Sudoeste 0 -- -- 80
2021-02-17 17:00:00 11 23 Sudoeste 37 Sudoeste 0 -- -- 80
2021-02-17 16:00:00 10.8 19 Sudoeste 30 Sudoeste 0 -- -- 83
2021-02-17 15:00:00 10.4 9 Sudoeste 26 Sudoeste 0 -- -- 86
2021-02-17 14:00:00 10.8 19 Sudoeste 42 Sudoeste 0 -- -- 78
2021-02-17 13:00:00 12.1 23 Sudoeste 43 Sudoeste 0.2 -- -- 69
2021-02-17 12:00:00 10 9 Sudoeste 24 Sudoeste 0 -- -- 82
2021-02-17 11:00:00 7.6 0 Calma 5 Sur 0 -- -- 97
2021-02-17 10:00:00 5.7 0 Calma 5 Sur 0 -- -- 98
2021-02-17 09:00:00 4.7 2 Norte 4 Sudeste 0 -- -- 97
2021-02-17 08:00:00 4.2 0 Calma 10 Noroeste 0 -- -- 97
2021-02-17 07:00:00 3.5 0 Calma 6 Noroeste 0 -- -- 97
2021-02-17 06:00:00 2.8 0 Calma 5 Noroeste 0 -- -- 96
2021-02-17 05:00:00 3.3 0 Calma 2 Norte 0 -- -- 96
2021-02-17 04:00:00 3.7 2 Nordeste 5 Sudeste 0 -- -- 96
2021-02-17 03:00:00 3.3 3 Norte 5 Norte 0 -- -- 96
2021-02-17 02:00:00 3.5 2 Norte 8 Norte 0 -- -- 95
2021-02-17 01:00:00 2.9 5 Norte 6 Norte 0 -- -- 94
2021-02-17 00:00:00 3.3 3 Norte 6 Norte 0 -- -- 92
2021-02-16 23:00:00 5.3 3 Norte 17 Sudoeste 0 -- -- 90
2021-02-16 22:00:00 6 3 Noroeste 12 Oeste 0 -- -- 92
2021-02-16 21:00:00 7 10 Sudoeste 14 Sudoeste 0 -- -- 88
2021-02-16 20:00:00 7.5 8 Sudoeste 22 Sudoeste 0 -- -- 86
2021-02-16 19:00:00 9 12 Sudoeste 25 Sudoeste 0 -- -- 81
2021-02-16 18:00:00 10.8 17 Sudoeste 30 Sudoeste 0 -- -- 77
2021-02-16 17:00:00 10.6 19 Sudoeste 33 Sudoeste 0 -- -- 82
2021-02-16 16:00:00 10.3 16 Sudoeste 25 Sudoeste 0.2 -- -- 90
2021-02-16 15:00:00 10 11 Oeste 27 Sudoeste 0.2 -- -- 89
2021-02-16 14:00:00 10 12 Sudoeste 28 Sudoeste 0 -- -- 83
2021-02-16 13:00:00 9.5 15 Sudoeste 33 Sudoeste 0 -- -- 84
2021-02-16 12:00:00 9.3 17 Sudoeste 30 Sudoeste 0 -- -- 80
2021-02-16 11:00:00 8.9 13 Sudoeste 33 Sudoeste 0 -- -- 82
2021-02-16 10:00:00 7.2 7 Sudeste 12 Sudeste 0 -- -- 96
2021-02-16 09:00:00 3.5 5 Sur 13 Sudoeste 0 -- -- 96
2021-02-16 08:00:00 0.4 4 Norte 7 Norte 0 -- -- 97
2021-02-16 07:00:00 -0.3 3 Norte 9 Norte 0 -- -- 95
2021-02-16 06:00:00 0.1 2 Nordeste 5 Sur 0 -- -- 95
2021-02-16 05:00:00 0.4 2 Norte 4 Norte 0 -- -- 93
2021-02-16 04:00:00 1.3 0 Calma 4 Noroeste 0 -- -- 92
2021-02-16 03:00:00 2.1 0 Calma 4 Norte 0 -- -- 92
2021-02-16 02:00:00 3.7 0 Calma 7 Noroeste 0 -- -- 90
2021-02-16 01:00:00 4.3 0 Calma 4 Este 0 -- -- 89
2021-02-16 00:00:00 4.4 3 Este 14 Sudoeste 0 -- -- 87
2021-02-15 23:00:00 4.6 3 Noroeste 7 Noroeste 0 -- -- 89
2021-02-15 22:00:00 5.6 2 Norte 8 Noroeste 0 -- -- 86
2021-02-15 21:00:00 7.9 4 Noroeste 8 Sur 0 -- -- 80
2021-02-15 20:00:00 9.5 3 Sudeste 8 Sudeste 0 -- -- 76
2021-02-15 19:00:00 11.6 6 Sudeste 14 Este 0 -- -- 71
2021-02-15 18:00:00 14.7 11 Sudeste 23 Sudeste 0 -- -- 58
2021-02-15 17:00:00 15.6 12 Sudeste 25 Sudeste 0 -- -- 54
2021-02-15 16:00:00 15.4 6 Sudeste 22 Sudeste 0 -- -- 55
2021-02-15 15:00:00 14.7 7 Sudeste 15 Sudeste 0 -- -- 57
2021-02-15 14:00:00 13.3 3 Este 11 Sudeste 0 -- -- 64
2021-02-15 13:00:00 11.5 4 Sudeste 9 Sudeste 0 -- -- 71
2021-02-15 12:00:00 8.8 4 Este 9 Este 0 -- -- 84
2021-02-15 11:00:00 6.4 3 Este 5 Sur 0 -- -- 96
2021-02-15 10:00:00 2.5 0 Calma 4 Norte 0 -- -- 98
2021-02-15 09:00:00 -0.3 3 Norte 4 Norte 0 -- -- 97
2021-02-15 08:00:00 -0.3 2 Norte 3 Norte 0 -- -- 97
2021-02-15 07:00:00 -0.8 0 Calma 2 Nordeste 0 -- -- 96
2021-02-15 06:00:00 -0.4 0 Calma 3 Norte 0 -- -- 96
2021-02-15 05:00:00 0 0 Calma 2 Norte 0 -- -- 96
2021-02-15 04:00:00 0.4 0 Calma 3 Norte 0 -- -- 96
2021-02-15 03:00:00 0.9 0 Calma 3 Norte 0 -- -- 96
2021-02-15 02:00:00 1.2 0 Calma 4 Noroeste 0 -- -- 95
2021-02-15 01:00:00 2.4 2 Noroeste 4 Norte 0 -- -- 94
2021-02-15 00:00:00 3.4 0 Calma 4 Noroeste 0 -- -- 94
2021-02-14 23:00:00 4.8 0 Calma 5 Noroeste 0 -- -- 94
2021-02-14 22:00:00 6 4 Oeste 9 Oeste 0 -- -- 93
2021-02-14 21:00:00 6.5 5 Norte 9 Norte 0 -- -- 91
2021-02-14 20:00:00 7.7 6 Norte 10 Norte 0 -- -- 88
2021-02-14 19:00:00 10.6 5 Norte 12 Sudeste 0 -- -- 81
2021-02-14 18:00:00 12.3 4 Nordeste 18 Sudeste 0 -- -- 77
2021-02-14 17:00:00 12.8 10 Sudeste 19 Sudeste 0 -- -- 72
2021-02-14 16:00:00 12 13 Sudeste 21 Sudeste 0 -- -- 75
2021-02-14 15:00:00 11.7 12 Sudeste 20 Sudeste 0 -- -- 75
2021-02-14 14:00:00 9.2 10 Sudeste 18 Sudeste 0 -- -- 88
2021-02-14 13:00:00 5.8 4 Este 8 Este 0 -- -- 98
2021-02-14 12:00:00 4.2 3 Este 6 Nordeste 0 -- -- 97
2021-02-14 11:00:00 3.2 2 Nordeste 5 Sudeste 0 -- -- 98
2021-02-14 10:00:00 2.1 2 Sudeste 5 Sudeste 0 -- -- 98
2021-02-14 09:00:00 0 0 Calma 2 Norte 0 -- -- 96
2021-02-14 08:00:00 -0.4 0 Calma 4 Oeste 0 -- -- 95
2021-02-14 07:00:00 0 0 Calma 5 Este 0 -- -- 96
2021-02-14 06:00:00 0.2 0 Calma 3 Sudeste 0 -- -- 96
2021-02-14 05:00:00 0.6 0 Calma 5 Norte 0 -- -- 95
2021-02-14 04:00:00 1.1 0 Calma 4 Norte 0 -- -- 95
2021-02-14 03:00:00 1.7 2 Norte 4 Norte 0 -- -- 94
2021-02-14 02:00:00 2.4 2 Norte 4 Norte 0 -- -- 94
2021-02-14 01:00:00 3.2 0 Calma 4 Norte 0 -- -- 92
2021-02-14 00:00:00 4.8 0 Calma 4 Nordeste 0 -- -- 91
2021-02-13 23:00:00 6.2 3 Este 4 Este 0 -- -- 88
2021-02-13 22:00:00 8.2 3 Este 6 Noroeste 0 -- -- 84
2021-02-13 21:00:00 9.4 0 Calma 13 Oeste 0 -- -- 80
2021-02-13 20:00:00 10.2 4 Sur 8 Sur 0 -- -- 75
2021-02-13 19:00:00 11.3 7 Sudeste 13 Nordeste 0 -- -- 74
2021-02-13 18:00:00 13.2 3 Este 13 Nordeste 0 -- -- 70
2021-02-13 17:00:00 13.5 6 Este 9 Este 0 -- -- 67
2021-02-13 16:00:00 14.3 5 Este 17 Este 0 -- -- 62
2021-02-13 15:00:00 14 11 Este 19 Este 0 -- -- 66
2021-02-13 14:00:00 12.1 3 Nordeste 12 Sudeste 0 -- -- 68
2021-02-13 13:00:00 11.5 6 Este 13 Sudeste 0 -- -- 69
2021-02-13 08:00:00 -- -- -- -- -- -- -- -- --
2021-02-13 07:00:00 -- -- -- -- -- -- -- -- --
2021-02-13 06:00:00 2.2 2 Norte 6 Norte 0 -- -- 95
2021-02-13 05:00:00 2.4 2 Nordeste 5 Este 0 -- -- 95
2021-02-13 04:00:00 2.7 0 Calma 4 Sudoeste 0 -- -- 94
2021-02-13 03:00:00 2.9 0 Calma 6 Norte 0 -- -- 93
2021-02-13 02:00:00 3 3 Este 9 Nordeste 0 -- -- 92
2021-02-13 01:00:00 3.8 2 Norte 8 Norte 0 -- -- 90
2021-02-13 00:00:00 4 0 Calma 6 Sudoeste 0 -- -- 88
2021-02-12 23:00:00 5.6 3 Norte 8 Norte 0 -- -- 84
2021-02-12 22:00:00 6.2 8 Norte 10 Norte 0 -- -- 83
2021-02-12 21:00:00 6.8 3 Norte 10 Oeste 0 -- -- 79
2021-02-12 20:00:00 7.8 0 Calma 7 Oeste 0 -- -- 74
2021-02-12 19:00:00 10 6 Oeste 16 Noroeste 0 -- -- 62
2021-02-12 18:00:00 12 9 Noroeste 13 Noroeste 0 -- -- 56
2021-02-12 17:00:00 13.2 10 Noroeste 22 Noroeste 0 -- -- 51
2021-02-12 16:00:00 13.3 16 Noroeste 29 Noroeste 0 -- -- 51
2021-02-12 15:00:00 13.2 22 Noroeste 34 Noroeste 0 -- -- 54
2021-02-12 14:00:00 11.9 17 Noroeste 33 Noroeste 0 -- -- 60
2021-02-12 13:00:00 12.6 14 Oeste 32 Oeste 0 -- -- 62
2021-02-12 12:00:00 10.7 17 Oeste 27 Oeste 0 -- -- 73
2021-02-12 11:00:00 9.6 14 Oeste 24 Oeste 0 -- -- 78
2021-02-12 10:00:00 8.3 13 Oeste 22 Sudoeste 0 -- -- 87
2021-02-12 09:00:00 6.6 12 Oeste 26 Oeste 0 -- -- 89
2021-02-12 08:00:00 6.2 4 Oeste 13 Sudoeste 0 -- -- 90
2021-02-12 07:00:00 6.4 4 Oeste 19 Oeste 0 -- -- 90
2021-02-12 06:00:00 7.6 9 Oeste 30 Sudoeste 0 -- -- 91
2021-02-12 05:00:00 8.3 17 Sudoeste 28 Sudoeste 1.2 -- -- 92
2021-02-12 04:00:00 8.4 9 Sudoeste 19 Sudoeste 0.4 -- -- 95
2021-02-12 03:00:00 8.9 4 Oeste 12 Oeste 1.2 -- -- 95
2021-02-12 02:00:00 9 8 Sudoeste 16 Sudoeste 0.6 -- -- 93
2021-02-12 01:00:00 10 9 Sudoeste 30 Sudoeste 1.6 -- -- 92
2021-02-12 00:00:00 10.4 15 Sur 23 Sur 0.4 -- -- 94
2021-02-11 23:00:00 10.6 17 Sudoeste 24 Sudoeste 0.4 -- -- 95
2021-02-11 22:00:00 10.4 10 Sur 21 Sudoeste 0.2 -- -- 96
2021-02-11 21:00:00 10.5 16 Sur 21 Sur 0.2 -- -- 94
2021-02-11 20:00:00 10.8 15 Sur 23 Sur 0.2 -- -- 92
2021-02-11 19:00:00 11.1 8 Sur 19 Sur 0.6 -- -- 91
2021-02-11 18:00:00 12.6 11 Sur 23 Sudoeste 0 -- -- 82
2021-02-11 17:00:00 13.1 18 Sudoeste 36 Sudoeste 0 -- -- 77
2021-02-11 16:00:00 13.4 25 Sudoeste 36 Sudoeste 0 -- -- 73
2021-02-11 15:00:00 12.8 23 Sudoeste 32 Sudoeste 0 -- -- 79
2021-02-11 14:00:00 13.8 22 Sudoeste 35 Sudoeste 0 -- -- 72
2021-02-11 13:00:00 13.4 22 Sudoeste 33 Sudoeste 0 -- -- 70
2021-02-11 12:00:00 12 15 Sudoeste 22 Sudoeste 0 -- -- 76
2021-02-11 11:00:00 10.2 11 Oeste 20 Oeste 0 -- -- 86
2021-02-11 10:00:00 7.9 2 Sudoeste 4 Norte 0 -- -- 94
2021-02-11 09:00:00 7.2 0 Calma 9 Oeste 0 -- -- 93
2021-02-11 08:00:00 6.8 4 Norte 7 Norte 0 -- -- 94
2021-02-11 07:00:00 6.6 6 Sudoeste 10 Sur 0 -- -- 93
2021-02-11 06:00:00 6.5 5 Sur 7 Sur 0 -- -- 92
2021-02-11 05:00:00 6.5 2 Sudoeste 9 Norte 0 -- -- 90
2021-02-11 04:00:00 6.4 3 Sudoeste 17 Sudoeste 0 -- -- 90
2021-02-11 03:00:00 6.2 6 Oeste 14 Oeste 0 -- -- 90
2021-02-11 02:00:00 6.4 6 Sudoeste 12 Sudoeste 0 -- -- 84
2021-02-11 01:00:00 6.4 3 Sudoeste 12 Sudoeste 0 -- -- 84
2021-02-11 00:00:00 6.5 9 Sudoeste 13 Sudoeste 0 -- -- 85
2021-02-10 23:00:00 6.9 8 Sudoeste 22 Sudoeste 0 -- -- 80
2021-02-10 22:00:00 7.4 4 Sudoeste 11 Oeste 0 -- -- 77
2021-02-10 21:00:00 7.4 7 Oeste 11 Oeste 0 -- -- 71
2021-02-10 20:00:00 7.2 8 Sudoeste 17 Sudoeste 0 -- -- 72
2021-02-10 19:00:00 8.1 10 Sudoeste 18 Oeste 0 -- -- 68
2021-02-10 18:00:00 9.1 13 Sudoeste 27 Sudoeste 0 -- -- 62
2021-02-10 17:00:00 10.2 17 Sudoeste 30 Sudoeste 0 -- -- 57
2021-02-10 16:00:00 11.4 16 Sudoeste 28 Sudoeste 0 -- -- 50
2021-02-10 15:00:00 11.8 13 Sudoeste 22 Sudoeste 0 -- -- 53
2021-02-10 14:00:00 10.4 3 Sur 12 Sudoeste 0 -- -- 58
2021-02-10 13:00:00 8.6 3 Sur 13 Sudoeste 0 -- -- 65
2021-02-10 12:00:00 6.3 6 Sudoeste 14 Sudoeste 0 -- -- 77
2021-02-10 11:00:00 4.8 6 Sudeste 18 Este 0 -- -- 84
2021-02-10 10:00:00 3.7 8 Este 18 Este 0 -- -- 87
2021-02-10 09:00:00 3.2 2 Sur 20 Sudeste 0 -- -- 84
2021-02-10 08:00:00 2.5 8 Oeste 20 Oeste 0 -- -- 87
2021-02-10 07:00:00 1.8 4 Sudeste 10 Sudeste 0 -- -- 94
2021-02-10 06:00:00 2.1 5 Norte 17 Oeste 0 -- -- 92
2021-02-10 05:00:00 2.5 3 Noroeste 22 Oeste 0 -- -- 92
2021-02-10 04:00:00 2.8 9 Sudoeste 18 Oeste 0 -- -- 94
2021-02-10 03:00:00 2.6 5 Oeste 28 Oeste 0.2 -- -- 93
2021-02-10 02:00:00 3.9 17 Sudoeste 37 Sudoeste 1 -- -- 93
2021-02-10 01:00:00 3.5 6 Sur 27 Sudoeste 0 -- -- 93
2021-02-10 00:00:00 3.6 12 Sudoeste 27 Sudoeste 0.2 -- -- 94
2021-02-09 23:00:00 3.8 14 Oeste 28 Sudoeste 0.4 -- -- 93
2021-02-09 22:00:00 3.2 16 Sudoeste 29 Sudoeste 0 -- -- 94
2021-02-09 21:00:00 2.3 16 Sudoeste 31 Sudoeste 0.2 -- -- 93
2021-02-09 20:00:00 2.1 16 Sudoeste 27 Sudoeste 0 -- -- 93
2021-02-09 19:00:00 3.2 18 Sudoeste 31 Sudoeste 1.4 -- -- 92
2021-02-09 18:00:00 4.3 14 Sudoeste 26 Sudoeste 0 -- -- 89
2021-02-09 17:00:00 4.6 18 Sudoeste 39 Sudoeste 0 -- -- 86
2021-02-09 16:00:00 5.5 21 Sudoeste 39 Sudoeste 0 -- -- 85
2021-02-09 15:00:00 5.9 22 Sudoeste 39 Sudoeste 0 -- -- 83
2021-02-09 14:00:00 5.1 14 Sudoeste 31 Sudoeste 0 -- -- 89
2021-02-09 13:00:00 3.4 10 Sudoeste 33 Sudoeste 1 -- -- 93
2021-02-09 12:00:00 4.3 19 Sudoeste 35 Sudoeste 1.6 -- -- 90
2021-02-09 11:00:00 5.4 22 Oeste 53 Oeste 3.4 -- -- 89
2021-02-09 10:00:00 6.8 27 Sudoeste 48 Sudoeste 1.6 -- -- 91
2021-02-09 09:00:00 6.7 28 Sudoeste 45 Sudoeste 0.8 -- -- 90
2021-02-09 08:00:00 6.6 28 Sudoeste 54 Sudoeste 0.4 -- -- 89
2021-02-09 07:00:00 6.2 15 Sudoeste 32 Sur 0.4 -- -- 91
2021-02-09 06:00:00 5.8 19 Sudoeste 32 Sudoeste 0.2 -- -- 93
2021-02-09 05:00:00 5.5 17 Sudoeste 33 Sudoeste 0.2 -- -- 92
2021-02-09 04:00:00 5.1 14 Sur 24 Sudoeste 0.2 -- -- 94
2021-02-09 03:00:00 4.4 15 Sudoeste 32 Sudoeste 0.2 -- -- 93
2021-02-09 02:00:00 5 19 Sudoeste 29 Sudoeste 0 -- -- 89
2021-02-09 01:00:00 5.5 14 Sudoeste 24 Sudoeste 0 -- -- 90
2021-02-09 00:00:00 5.5 18 Sudoeste 37 Oeste 0 -- -- 89
2021-02-08 23:00:00 5.8 17 Sudoeste 50 Sudoeste 0 -- -- 89
2021-02-08 22:00:00 6.2 14 Sudoeste 31 Oeste 0 -- -- 88
2021-02-08 21:00:00 6 16 Sudoeste 28 Sudoeste 0 -- -- 86
2021-02-08 20:00:00 5.9 14 Sudoeste 30 Oeste 0 -- -- 86
2021-02-08 19:00:00 6.2 13 Sudoeste 24 Sudoeste 0 -- -- 84
2021-02-08 18:00:00 7.5 12 Sudoeste 37 Sudoeste 0 -- -- 81
2021-02-08 17:00:00 7.6 21 Sudoeste 36 Sudoeste 0 -- -- 77
2021-02-08 16:00:00 7.5 18 Oeste 40 Sudoeste 0 -- -- 76
2021-02-08 15:00:00 7.6 26 Sudoeste 42 Oeste 0 -- -- 76
2021-02-08 14:00:00 7.1 23 Oeste 46 Oeste 0 -- -- 80
2021-02-08 13:00:00 7.6 21 Sudoeste 45 Sudoeste 0.2 -- -- 79
2021-02-08 12:00:00 7 18 Sudoeste 33 Sudoeste 0 -- -- 82
2021-02-08 11:00:00 6.4 19 Sudoeste 34 Sudoeste 0 -- -- 85
2021-02-08 10:00:00 5 14 Sudoeste 25 Sudoeste 0 -- -- 93
2021-02-08 09:00:00 4.2 7 Noroeste 20 Norte 0 -- -- 94
2021-02-08 08:00:00 3.4 14 Norte 20 Norte 0 -- -- 95
2021-02-08 07:00:00 3.6 9 Norte 22 Norte 0 -- -- 94
2021-02-08 06:00:00 3.5 9 Norte 19 Norte 0 -- -- 96
2021-02-08 05:00:00 2.1 3 Norte 11 Oeste 0 -- -- 97
2021-02-08 04:00:00 2.5 5 Sudoeste 10 Oeste 0 -- -- 94
2021-02-08 03:00:00 3.9 5 Oeste 9 Sudoeste 0.6 -- -- 95
2021-02-08 02:00:00 4.2 3 Noroeste 9 Noroeste 0.2 -- -- 97
2021-02-08 01:00:00 4.2 3 Norte 5 Norte 1.2 -- -- 96
2021-02-08 00:00:00 4.2 3 Sur 11 Sudoeste 2.2 -- -- 96
2021-02-07 23:00:00 4.1 4 Sudoeste 10 Sudoeste 0.4 -- -- 96
2021-02-07 22:00:00 4.1 0 Calma 9 Sudoeste 0 -- -- 93
2021-02-07 21:00:00 3.9 6 Sudoeste 22 Sudoeste 0 -- -- 92
2021-02-07 20:00:00 3.7 15 Sudoeste 37 Sudoeste 0 -- -- 91
2021-02-07 19:00:00 4.1 17 Sudoeste 44 Sudoeste 0 -- -- 88
2021-02-07 18:00:00 4.6 18 Sudoeste 38 Sudoeste 0 -- -- 84
2021-02-07 17:00:00 4.6 19 Sudoeste 32 Sudoeste 0 -- -- 83
2021-02-07 16:00:00 5.1 15 Sudoeste 28 Sudoeste 0 -- -- 79
2021-02-07 15:00:00 5.1 18 Sudoeste 29 Sudoeste 0 -- -- 78
2021-02-07 14:00:00 5.8 12 Sudoeste 22 Oeste 0 -- -- 70
2021-02-07 13:00:00 5.6 11 Sudoeste 19 Sudoeste 0 -- -- 73
2021-02-07 12:00:00 4.8 9 Sudoeste 15 Sudoeste 0 -- -- 76
2021-02-07 11:00:00 4.1 8 Sur 12 Sudoeste 0 -- -- 81
2021-02-07 10:00:00 2.6 6 Sur 9 Sur 0 -- -- 88
2021-02-07 09:00:00 1.1 0 Calma 3 Sur 0 -- -- 91
2021-02-07 08:00:00 1.7 0 Calma 4 Oeste 0 -- -- 90
2021-02-07 07:00:00 1.9 2 Oeste 6 Oeste 0 -- -- 89
2021-02-07 06:00:00 2 0 Calma 8 Noroeste 0 -- -- 89
2021-02-07 05:00:00 1.9 3 Noroeste 8 Norte 0 -- -- 84
2021-02-07 04:00:00 1.9 5 Norte 9 Norte 0 -- -- 83
2021-02-07 03:00:00 2.1 7 Norte 15 Norte 0 -- -- 82
2021-02-07 02:00:00 2.1 9 Norte 17 Norte 0 -- -- 82
2021-02-07 01:00:00 2.2 9 Norte 22 Norte 0 -- -- 81
2021-02-07 00:00:00 3.3 13 Norte 21 Norte 0 -- -- 77
2021-02-06 23:00:00 3.8 11 Norte 23 Norte 0 -- -- 78
2021-02-06 22:00:00 4.3 7 Norte 20 Norte 0 -- -- 82
2021-02-06 21:00:00 5.1 14 Norte 26 Norte 0 -- -- 79
2021-02-06 20:00:00 5 8 Norte 17 Norte 0 -- -- 83
2021-02-06 19:00:00 5.6 7 Norte 13 Noroeste 0 -- -- 83
2021-02-06 18:00:00 7 9 Norte 22 Norte 0.2 -- -- 79
2021-02-06 17:00:00 7.3 8 Norte 28 Norte 0 -- -- 79
2021-02-06 16:00:00 7.4 16 Norte 30 Norte 0 -- -- 74
2021-02-06 15:00:00 7.1 7 Norte 21 Norte 0 -- -- 83
2021-02-06 14:00:00 6.3 10 Norte 22 Norte 0.2 -- -- 88
2021-02-06 13:00:00 5.5 18 Norte 28 Norte 0 -- -- 87
2021-02-06 12:00:00 5.2 15 Norte 27 Norte 0 -- -- 90
2021-02-06 11:00:00 5.1 18 Norte 30 Norte 0 -- -- 90
2021-02-06 10:00:00 4.6 18 Norte 27 Norte 0 -- -- 92
2021-02-06 09:00:00 4.8 19 Norte 28 Norte 0.2 -- -- 91
2021-02-06 08:00:00 4.8 19 Norte 29 Norte 0.4 -- -- 92
2021-02-06 07:00:00 4.8 16 Norte 26 Norte 1.2 -- -- 94
2021-02-06 06:00:00 4.9 19 Norte 31 Norte 1 -- -- 94
2021-02-06 05:00:00 5 18 Norte 32 Norte 2 -- -- 95
2021-02-06 04:00:00 5.3 23 Norte 39 Norte 0.8 -- -- 94
2021-02-06 03:00:00 5.4 26 Norte 40 Norte 1.2 -- -- 94
2021-02-06 02:00:00 6.1 26 Norte 39 Norte 3.6 -- -- 95
2021-02-06 01:00:00 7.1 12 Norte 26 Norte 1.6 -- -- 92
2021-02-06 00:00:00 7.2 9 Norte 19 Noroeste 0.8 -- -- 92
2021-02-05 23:00:00 7.4 12 Norte 26 Norte 0.4 -- -- 91
2021-02-05 22:00:00 7.1 12 Norte 24 Norte 0.6 -- -- 92
2021-02-05 21:00:00 7.6 23 Norte 37 Norte 0.8 -- -- 91
2021-02-05 20:00:00 8.1 14 Norte 23 Norte 0.2 -- -- 93
2021-02-05 19:00:00 8 7 Norte 11 Norte 0 -- -- 94
2021-02-05 18:00:00 8.4 6 Norte 13 Norte 0 -- -- 93
2021-02-05 17:00:00 8.4 11 Norte 18 Norte 0 -- -- 93
2021-02-05 16:00:00 8.1 11 Norte 18 Norte 0 -- -- 93
2021-02-05 15:00:00 7.7 12 Norte 21 Norte 0 -- -- 93
2021-02-05 14:00:00 7.1 13 Norte 18 Norte 0 -- -- 93
2021-02-05 13:00:00 6.9 11 Norte 24 Norte 0 -- -- 93
2021-02-05 12:00:00 6.2 12 Norte 18 Norte 0 -- -- 94
2021-02-05 11:00:00 5.7 10 Norte 18 Norte 0.4 -- -- 94
2021-02-05 10:00:00 5.4 9 Norte 19 Norte 0.2 -- -- 94
2021-02-05 09:00:00 5.2 13 Norte 22 Norte 0.6 -- -- 95
2021-02-05 08:00:00 5.1 12 Norte 18 Norte 4 -- -- 96
2021-02-05 07:00:00 5.3 8 Norte 21 Norte 0.4 -- -- 95
2021-02-05 06:00:00 5.3 10 Norte 17 Norte 0 -- -- 96
2021-02-05 05:00:00 5.2 5 Norte 10 Norte 0.2 -- -- 96
2021-02-05 04:00:00 5.2 5 Norte 17 Norte 0.2 -- -- 96
2021-02-05 03:00:00 5.1 8 Norte 16 Norte 0.2 -- -- 96
2021-02-05 02:00:00 5.2 5 Norte 10 Norte 0 -- -- 96
2021-02-05 01:00:00 5.2 3 Norte 8 Norte 0 -- -- 96
2021-02-05 00:00:00 5 2 Norte 3 Norte 0 -- -- 96
2021-02-04 23:00:00 5.2 0 Calma 3 Norte 0 -- -- 96
2021-02-04 22:00:00 5.4 0 Calma 3 Oeste 0.2 -- -- 95
2021-02-04 21:00:00 5.4 0 Calma 2 Noroeste 0 -- -- 95
2021-02-04 20:00:00 5.5 0 Calma 5 Sudoeste 0 -- -- 95
2021-02-04 19:00:00 5.5 3 Sudoeste 11 Este 0.2 -- -- 95
2021-02-04 18:00:00 5.8 6 Sudeste 12 Sudeste 0.6 -- -- 94
2021-02-04 17:00:00 5.9 6 Sudeste 13 Sudeste 1 -- -- 93
2021-02-04 16:00:00 6.5 4 Este 5 Este 0 -- -- 87
2021-02-04 15:00:00 6.6 0 Calma 3 Nordeste 0.4 -- -- 86
2021-02-04 14:00:00 6.5 0 Calma 3 Sudoeste 0.6 -- -- 94
2021-02-04 13:00:00 6.3 0 Calma 5 Nordeste 0.2 -- -- 96
2021-02-04 12:00:00 5.9 0 Calma 3 Norte 0 -- -- 96
2021-02-04 11:00:00 5.4 0 Calma 4 Norte 0 -- -- 97
2021-02-04 10:00:00 4.4 2 Oeste 4 Norte 0 -- -- 97
2021-02-04 09:00:00 3.3 2 Norte 5 Norte 0 -- -- 96
2021-02-04 08:00:00 3.3 2 Norte 4 Noroeste 0 -- -- 95
2021-02-04 07:00:00 3.5 2 Noroeste 6 Noroeste 0 -- -- 95
2021-02-04 06:00:00 3.9 3 Sudoeste 9 Sur 0 -- -- 92
2021-02-04 05:00:00 3.9 4 Sudoeste 6 Sur 0 -- -- 95
2021-02-04 04:00:00 3.8 3 Sur 4 Sur 0 -- -- 93
2021-02-04 03:00:00 3.9 5 Sur 7 Sur 0 -- -- 93
2021-02-04 02:00:00 4.3 4 Sudoeste 7 Sudoeste 0 -- -- 93
2021-02-04 01:00:00 5.5 3 Sudoeste 8 Sur 0 -- -- 90
2021-02-04 00:00:00 5 3 Sudoeste 14 Sur 0 -- -- 90